sensor_id;sensor_type;location;lat;lon;timestamp;P1;durP1;ratioP1;P2;durP2;ratioP2
9418;SDS011;4748;50.802;7.132;2022-08-18T03:30:38;9.40;;;6.73;;
9418;SDS011;4748;50.802;7.132;2022-08-18T03:33:04;14.87;;;8.60;;
9418;SDS011;4748;50.802;7.132;2022-08-18T03:35:30;12.23;;;8.07;;
9418;SDS011;4748;50.802;7.132;2022-08-18T03:37:59;9.40;;;7.67;;
9418;SDS011;4748;50.802;7.132;2022-08-18T03:40:24;10.07;;;8.50;;
9418;SDS011;4748;50.802;7.132;2022-08-18T03:42:49;15.53;;;8.90;;
9418;SDS011;4748;50.802;7.132;2022-08-18T03:45:15;12.90;;;9.33;;
9418;SDS011;4748;50.802;7.132;2022-08-18T03:47:40;14.20;;;8.37;;
9418;SDS011;4748;50.802;7.132;2022-08-18T03:50:06;14.07;;;8.47;;
9418;SDS011;4748;50.802;7.132;2022-08-18T03:52:32;21.63;;;10.20;;
9418;SDS011;4748;50.802;7.132;2022-08-18T03:54:57;15.00;;;9.77;;
9418;SDS011;4748;50.802;7.132;2022-08-18T03:57:24;14.83;;;9.50;;
9418;SDS011;4748;50.802;7.132;2022-08-18T03:59:49;13.60;;;9.63;;
9418;SDS011;4748;50.802;7.132;2022-08-18T04:02:14;11.77;;;8.73;;
9418;SDS011;4748;50.802;7.132;2022-08-18T04:04:40;15.97;;;9.00;;
9418;SDS011;4748;50.802;7.132;2022-08-18T04:07:06;15.83;;;11.37;;
9418;SDS011;4748;50.802;7.132;2022-08-18T04:09:34;17.33;;;11.27;;
9418;SDS011;4748;50.802;7.132;2022-08-18T04:12:07;15.07;;;9.50;;
9418;SDS011;4748;50.802;7.132;2022-08-18T04:14:36;13.80;;;10.00;;
9418;SDS011;4748;50.802;7.132;2022-08-18T04:17:04;21.50;;;10.80;;
9418;SDS011;4748;50.802;7.132;2022-08-18T04:19:30;17.13;;;11.20;;
9418;SDS011;4748;50.802;7.132;2022-08-18T04:21:58;17.23;;;11.13;;
9418;SDS011;4748;50.802;7.132;2022-08-18T04:24:25;15.47;;;10.63;;
9418;SDS011;4748;50.802;7.132;2022-08-18T04:26:53;17.20;;;11.63;;
9418;SDS011;4748;50.802;7.132;2022-08-18T04:29:20;15.13;;;10.37;;
9418;SDS011;4748;50.802;7.132;2022-08-18T04:31:45;17.77;;;10.83;;
9418;SDS011;4748;50.802;7.132;2022-08-18T04:34:12;20.90;;;11.50;;
9418;SDS011;4748;50.802;7.132;2022-08-18T04:36:37;16.27;;;11.87;;
9418;SDS011;4748;50.802;7.132;2022-08-18T04:39:05;14.03;;;10.17;;
9418;SDS011;4748;50.802;7.132;2022-08-18T04:41:32;18.97;;;11.30;;
9418;SDS011;4748;50.802;7.132;2022-08-18T04:43:59;18.90;;;10.90;;
9418;SDS011;4748;50.802;7.132;2022-08-18T04:46:28;18.20;;;11.87;;
9418;SDS011;4748;50.802;7.132;2022-08-18T04:48:56;15.63;;;11.50;;
9418;SDS011;4748;50.802;7.132;2022-08-18T04:51:26;21.57;;;11.20;;
9418;SDS011;4748;50.802;7.132;2022-08-18T04:53:53;16.40;;;11.17;;
9418;SDS011;4748;50.802;7.132;2022-08-18T04:56:24;13.90;;;10.23;;
9418;SDS011;4748;50.802;7.132;2022-08-18T04:58:54;17.33;;;11.87;;
9418;SDS011;4748;50.802;7.132;2022-08-18T05:01:23;16.60;;;11.90;;
9418;SDS011;4748;50.802;7.132;2022-08-18T05:03:54;22.00;;;12.90;;
9418;SDS011;4748;50.802;7.132;2022-08-18T05:06:21;19.90;;;12.73;;
9418;SDS011;4748;50.802;7.132;2022-08-18T05:08:49;22.27;;;13.97;;
9418;SDS011;4748;50.802;7.132;2022-08-18T05:11:16;21.87;;;12.97;;
9418;SDS011;4748;50.802;7.132;2022-08-18T05:13:41;20.67;;;12.00;;
9418;SDS011;4748;50.802;7.132;2022-08-18T05:16:07;20.40;;;13.27;;
9418;SDS011;4748;50.802;7.132;2022-08-18T05:18:33;19.43;;;12.77;;
9418;SDS011;4748;50.802;7.132;2022-08-18T05:21:03;21.60;;;12.67;;
9418;SDS011;4748;50.802;7.132;2022-08-18T05:23:29;22.00;;;13.57;;
9418;SDS011;4748;50.802;7.132;2022-08-18T05:25:56;24.17;;;13.35;;
9418;SDS011;4748;50.802;7.132;2022-08-18T05:28:23;21.98;;;12.98;;
9418;SDS011;4748;50.802;7.132;2022-08-18T05:30:48;21.60;;;13.50;;
9418;SDS011;4748;50.802;7.132;2022-08-18T05:33:14;23.33;;;13.68;;
9418;SDS011;4748;50.802;7.132;2022-08-18T05:35:43;20.88;;;13.65;;
9418;SDS011;4748;50.802;7.132;2022-08-18T05:40:54;23.48;;;13.07;;
9418;SDS011;4748;50.802;7.132;2022-08-18T05:43:26;27.65;;;14.32;;
9418;SDS011;4748;50.802;7.132;2022-08-18T05:45:51;22.48;;;13.18;;
9418;SDS011;4748;50.802;7.132;2022-08-18T05:48:18;31.15;;;13.13;;
9418;SDS011;4748;50.802;7.132;2022-08-18T05:50:43;18.80;;;11.98;;
9418;SDS011;4748;50.802;7.132;2022-08-18T05:53:11;21.13;;;12.73;;
9418;SDS011;4748;50.802;7.132;2022-08-18T05:55:52;26.27;;;12.97;;
9418;SDS011;4748;50.802;7.132;2022-08-18T05:58:48;26.70;;;13.80;;
9418;SDS011;4748;50.802;7.132;2022-08-18T06:01:22;30.47;;;15.57;;
9418;SDS011;4748;50.802;7.132;2022-08-18T06:03:59;33.03;;;16.20;;
9418;SDS011;4748;50.802;7.132;2022-08-18T06:06:29;34.97;;;14.97;;
9418;SDS011;4748;50.802;7.132;2022-08-18T06:11:37;42.17;;;20.70;;
9418;SDS011;4748;50.802;7.132;2022-08-18T06:14:03;48.20;;;20.00;;
9418;SDS011;4748;50.802;7.132;2022-08-18T06:35:17;50.20;;;19.90;;
9418;SDS011;4748;50.802;7.132;2022-08-18T06:40:48;43.47;;;18.67;;
9418;SDS011;4748;50.802;7.132;2022-08-18T06:43:23;44.97;;;18.77;;
9418;SDS011;4748;50.802;7.132;2022-08-18T06:45:51;51.23;;;20.10;;
9418;SDS011;4748;50.802;7.132;2022-08-18T06:48:20;45.70;;;18.97;;
9418;SDS011;4748;50.802;7.132;2022-08-18T06:53:48;45.60;;;20.10;;
9418;SDS011;4748;50.802;7.132;2022-08-18T06:56:21;42.00;;;19.10;;
9418;SDS011;4748;50.802;7.132;2022-08-18T06:58:49;38.27;;;16.17;;
9418;SDS011;4748;50.802;7.132;2022-08-18T07:01:19;50.13;;;18.70;;
9418;SDS011;4748;50.802;7.132;2022-08-18T07:03:51;40.10;;;17.07;;
9418;SDS011;4748;50.802;7.132;2022-08-18T07:08:46;43.93;;;17.90;;
9418;SDS011;4748;50.802;7.132;2022-08-18T07:13:41;46.30;;;18.27;;
9418;SDS011;4748;50.802;7.132;2022-08-18T07:16:29;45.77;;;19.27;;
9418;SDS011;4748;50.802;7.132;2022-08-18T07:22:06;47.43;;;18.43;;
9418;SDS011;4748;50.802;7.132;2022-08-18T07:24:42;61.77;;;21.10;;
9418;SDS011;4748;50.802;7.132;2022-08-18T07:29:39;48.53;;;19.73;;
9418;SDS011;4748;50.802;7.132;2022-08-18T07:32:22;42.30;;;19.03;;
9418;SDS011;4748;50.802;7.132;2022-08-18T07:34:53;46.67;;;18.40;;
9418;SDS011;4748;50.802;7.132;2022-08-18T07:37:29;52.27;;;19.10;;
9418;SDS011;4748;50.802;7.132;2022-08-18T07:40:04;50.38;;;19.48;;
9418;SDS011;4748;50.802;7.132;2022-08-18T07:45:15;56.08;;;19.80;;
9418;SDS011;4748;50.802;7.132;2022-08-18T07:47:50;47.40;;;16.95;;
9418;SDS011;4748;50.802;7.132;2022-08-18T07:50:21;58.83;;;19.08;;
9418;SDS011;4748;50.802;7.132;2022-08-18T07:56:16;43.50;;;18.85;;
9418;SDS011;4748;50.802;7.132;2022-08-18T08:08:27;45.22;;;18.42;;
9418;SDS011;4748;50.802;7.132;2022-08-18T08:10:57;52.15;;;20.65;;
9418;SDS011;4748;50.802;7.132;2022-08-18T08:13:47;45.92;;;19.83;;
9418;SDS011;4748;50.802;7.132;2022-08-18T08:16:34;53.83;;;21.50;;
9418;SDS011;4748;50.802;7.132;2022-08-18T08:22:00;50.05;;;19.42;;
9418;SDS011;4748;50.802;7.132;2022-08-18T08:30:11;44.15;;;17.95;;
9418;SDS011;4748;50.802;7.132;2022-08-18T08:35:11;51.58;;;21.23;;
9418;SDS011;4748;50.802;7.132;2022-08-18T08:37:52;49.92;;;19.15;;
9418;SDS011;4748;50.802;7.132;2022-08-18T08:40:26;38.58;;;18.70;;
9418;SDS011;4748;50.802;7.132;2022-08-18T08:43:03;41.10;;;18.02;;
9418;SDS011;4748;50.802;7.132;2022-08-18T08:45:52;44.97;;;16.95;;
9418;SDS011;4748;50.802;7.132;2022-08-18T08:48:34;45.85;;;19.08;;
9418;SDS011;4748;50.802;7.132;2022-08-18T08:53:42;38.40;;;18.25;;
9418;SDS011;4748;50.802;7.132;2022-08-18T08:56:13;42.88;;;19.83;;
9418;SDS011;4748;50.802;7.132;2022-08-18T09:01:34;43.17;;;18.38;;
9418;SDS011;4748;50.802;7.132;2022-08-18T09:06:44;38.30;;;19.38;;
9418;SDS011;4748;50.802;7.132;2022-08-18T09:09:42;39.10;;;18.75;;
9418;SDS011;4748;50.802;7.132;2022-08-18T09:12:17;47.42;;;19.67;;
9418;SDS011;4748;50.802;7.132;2022-08-18T09:25:30;37.22;;;16.48;;
9418;SDS011;4748;50.802;7.132;2022-08-18T09:28:06;40.85;;;18.80;;
9418;SDS011;4748;50.802;7.132;2022-08-18T09:41:37;36.50;;;18.35;;
9418;SDS011;4748;50.802;7.132;2022-08-18T09:44:13;32.47;;;17.00;;
9418;SDS011;4748;50.802;7.132;2022-08-18T09:46:59;35.45;;;17.08;;
9418;SDS011;4748;50.802;7.132;2022-08-18T09:52:45;33.38;;;18.13;;
9418;SDS011;4748;50.802;7.132;2022-08-18T10:10:23;37.47;;;19.63;;
9418;SDS011;4748;50.802;7.132;2022-08-18T10:28:54;34.28;;;17.88;;
9418;SDS011;4748;50.802;7.132;2022-08-18T10:31:25;34.38;;;16.88;;
9418;SDS011;4748;50.802;7.132;2022-08-18T10:36:56;44.38;;;17.70;;
9418;SDS011;4748;50.802;7.132;2022-08-18T10:42:04;33.22;;;18.08;;
9418;SDS011;4748;50.802;7.132;2022-08-18T10:44:45;29.73;;;16.77;;
9418;SDS011;4748;50.802;7.132;2022-08-18T10:47:25;26.50;;;16.55;;
9418;SDS011;4748;50.802;7.132;2022-08-18T10:49:54;31.73;;;17.23;;
9418;SDS011;4748;50.802;7.132;2022-08-18T10:55:23;32.42;;;17.98;;
9418;SDS011;4748;50.802;7.132;2022-08-18T11:03:33;55.67;;;16.90;;
9418;SDS011;4748;50.802;7.132;2022-08-18T11:06:20;35.08;;;16.98;;
9418;SDS011;4748;50.802;7.132;2022-08-18T11:08:49;31.35;;;17.23;;
9418;SDS011;4748;50.802;7.132;2022-08-18T11:11:21;34.45;;;16.63;;
9418;SDS011;4748;50.802;7.132;2022-08-18T11:14:11;27.02;;;16.95;;
9418;SDS011;4748;50.802;7.132;2022-08-18T11:19:27;26.38;;;16.48;;
9418;SDS011;4748;50.802;7.132;2022-08-18T11:21:52;28.83;;;17.73;;
9418;SDS011;4748;50.802;7.132;2022-08-18T11:24:20;24.48;;;16.75;;
9418;SDS011;4748;50.802;7.132;2022-08-18T11:32:02;29.52;;;16.92;;
9418;SDS011;4748;50.802;7.132;2022-08-18T11:34:51;28.15;;;17.50;;
9418;SDS011;4748;50.802;7.132;2022-08-18T11:39:54;27.25;;;17.52;;
9418;SDS011;4748;50.802;7.132;2022-08-18T11:42:29;26.08;;;15.43;;
9418;SDS011;4748;50.802;7.132;2022-08-18T11:45:04;25.77;;;16.48;;
9418;SDS011;4748;50.802;7.132;2022-08-18T11:56:03;27.05;;;17.10;;
9418;SDS011;4748;50.802;7.132;2022-08-18T12:01:36;26.13;;;14.98;;
9418;SDS011;4748;50.802;7.132;2022-08-18T12:04:15;24.15;;;15.13;;
9418;SDS011;4748;50.802;7.132;2022-08-18T12:06:52;22.55;;;14.15;;
9418;SDS011;4748;50.802;7.132;2022-08-18T12:14:31;20.23;;;14.30;;
9418;SDS011;4748;50.802;7.132;2022-08-18T12:17:13;29.73;;;14.52;;
9418;SDS011;4748;50.802;7.132;2022-08-18T12:19:39;23.27;;;15.15;;
9418;SDS011;4748;50.802;7.132;2022-08-18T12:22:11;20.83;;;13.60;;
9418;SDS011;4748;50.802;7.132;2022-08-18T12:24:45;20.40;;;13.48;;
9418;SDS011;4748;50.802;7.132;2022-08-18T12:27:12;20.95;;;14.95;;
9418;SDS011;4748;50.802;7.132;2022-08-18T12:29:39;21.30;;;14.13;;
9418;SDS011;4748;50.802;7.132;2022-08-18T12:32:05;20.55;;;13.70;;
9418;SDS011;4748;50.802;7.132;2022-08-18T12:34:31;27.60;;;15.70;;
9418;SDS011;4748;50.802;7.132;2022-08-18T12:36:57;29.38;;;13.95;;
9418;SDS011;4748;50.802;7.132;2022-08-18T12:39:27;15.93;;;12.32;;
9418;SDS011;4748;50.802;7.132;2022-08-18T12:41:54;16.88;;;12.48;;
9418;SDS011;4748;50.802;7.132;2022-08-18T12:44:20;17.80;;;12.73;;
9418;SDS011;4748;50.802;7.132;2022-08-18T12:46:45;21.60;;;13.00;;
9418;SDS011;4748;50.802;7.132;2022-08-18T12:49:16;21.15;;;12.52;;
9418;SDS011;4748;50.802;7.132;2022-08-18T12:51:44;21.50;;;13.70;;
9418;SDS011;4748;50.802;7.132;2022-08-18T12:54:10;22.27;;;13.20;;
9418;SDS011;4748;50.802;7.132;2022-08-18T12:56:36;17.65;;;12.63;;
9418;SDS011;4748;50.802;7.132;2022-08-18T12:59:03;16.23;;;11.52;;
9418;SDS011;4748;50.802;7.132;2022-08-18T13:01:31;17.42;;;12.63;;
9418;SDS011;4748;50.802;7.132;2022-08-18T13:03:57;17.13;;;12.13;;
9418;SDS011;4748;50.802;7.132;2022-08-18T13:06:25;17.08;;;10.75;;
9418;SDS011;4748;50.802;7.132;2022-08-18T13:08:51;19.08;;;11.55;;
9418;SDS011;4748;50.802;7.132;2022-08-18T13:11:18;15.90;;;10.93;;
9418;SDS011;4748;50.802;7.132;2022-08-18T13:13:43;17.25;;;11.70;;
9418;SDS011;4748;50.802;7.132;2022-08-18T13:16:09;20.23;;;11.23;;
9418;SDS011;4748;50.802;7.132;2022-08-18T13:18:35;14.45;;;10.70;;
9418;SDS011;4748;50.802;7.132;2022-08-18T13:21:02;24.65;;;11.43;;
9418;SDS011;4748;50.802;7.132;2022-08-18T13:23:28;19.00;;;12.27;;
9418;SDS011;4748;50.802;7.132;2022-08-18T13:25:55;17.88;;;11.25;;
9418;SDS011;4748;50.802;7.132;2022-08-18T13:28:22;13.10;;;9.70;;
9418;SDS011;4748;50.802;7.132;2022-08-18T13:30:48;15.10;;;10.57;;
9418;SDS011;4748;50.802;7.132;2022-08-18T13:33:15;17.25;;;11.02;;
9418;SDS011;4748;50.802;7.132;2022-08-18T13:35:41;15.90;;;10.13;;
9418;SDS011;4748;50.802;7.132;2022-08-18T13:38:06;16.85;;;11.73;;
9418;SDS011;4748;50.802;7.132;2022-08-18T13:40:32;17.52;;;10.63;;
9418;SDS011;4748;50.802;7.132;2022-08-18T13:42:57;16.13;;;10.30;;
9418;SDS011;4748;50.802;7.132;2022-08-18T13:45:23;17.55;;;11.95;;
9418;SDS011;4748;50.802;7.132;2022-08-18T13:47:50;19.00;;;9.77;;
9418;SDS011;4748;50.802;7.132;2022-08-18T13:50:15;19.05;;;11.70;;
9418;SDS011;4748;50.802;7.132;2022-08-18T13:52:41;13.35;;;10.48;;
9418;SDS011;4748;50.802;7.132;2022-08-18T13:55:10;13.10;;;10.35;;
9418;SDS011;4748;50.802;7.132;2022-08-18T13:57:39;15.93;;;10.20;;
9418;SDS011;4748;50.802;7.132;2022-08-18T14:00:06;15.60;;;10.65;;
9418;SDS011;4748;50.802;7.132;2022-08-18T14:02:38;12.40;;;10.02;;
9418;SDS011;4748;50.802;7.132;2022-08-18T14:05:04;12.68;;;9.45;;
9418;SDS011;4748;50.802;7.132;2022-08-18T14:07:32;14.65;;;9.32;;
9418;SDS011;4748;50.802;7.132;2022-08-18T14:09:58;13.95;;;9.57;;
9418;SDS011;4748;50.802;7.132;2022-08-18T14:12:23;16.45;;;9.70;;
9418;SDS011;4748;50.802;7.132;2022-08-18T14:14:50;12.57;;;9.63;;
9418;SDS011;4748;50.802;7.132;2022-08-18T14:17:16;13.25;;;9.85;;
9418;SDS011;4748;50.802;7.132;2022-08-18T14:19:41;13.15;;;9.55;;
9418;SDS011;4748;50.802;7.132;2022-08-18T14:22:25;12.25;;;9.98;;
9418;SDS011;4748;50.802;7.132;2022-08-18T14:25:17;13.32;;;10.05;;
9418;SDS011;4748;50.802;7.132;2022-08-18T14:28:01;13.05;;;10.10;;
9418;SDS011;4748;50.802;7.132;2022-08-18T14:30:26;15.10;;;10.35;;
9418;SDS011;4748;50.802;7.132;2022-08-18T14:32:52;13.02;;;9.63;;
9418;SDS011;4748;50.802;7.132;2022-08-18T14:35:17;12.55;;;9.05;;
9418;SDS011;4748;50.802;7.132;2022-08-18T14:37:44;13.35;;;9.98;;
9418;SDS011;4748;50.802;7.132;2022-08-18T14:40:09;11.18;;;8.60;;
9418;SDS011;4748;50.802;7.132;2022-08-18T14:42:35;22.02;;;10.18;;
9418;SDS011;4748;50.802;7.132;2022-08-18T14:45:02;13.02;;;10.00;;
9418;SDS011;4748;50.802;7.132;2022-08-18T14:47:30;11.98;;;9.80;;
9418;SDS011;4748;50.802;7.132;2022-08-18T14:49:56;11.25;;;9.10;;
9418;SDS011;4748;50.802;7.132;2022-08-18T14:52:24;13.93;;;10.60;;
9418;SDS011;4748;50.802;7.132;2022-08-18T14:54:50;11.70;;;9.35;;
9418;SDS011;4748;50.802;7.132;2022-08-18T14:57:15;10.50;;;9.15;;
9418;SDS011;4748;50.802;7.132;2022-08-18T14:59:41;10.93;;;8.52;;
9418;SDS011;4748;50.802;7.132;2022-08-18T15:02:07;10.80;;;8.98;;
9418;SDS011;4748;50.802;7.132;2022-08-18T15:04:34;16.00;;;8.32;;
9418;SDS011;4748;50.802;7.132;2022-08-18T15:07:00;9.13;;;8.20;;
9418;SDS011;4748;50.802;7.132;2022-08-18T15:09:26;10.77;;;8.20;;
9418;SDS011;4748;50.802;7.132;2022-08-18T15:11:54;15.38;;;8.10;;
9418;SDS011;4748;50.802;7.132;2022-08-18T15:14:23;10.15;;;7.47;;
9418;SDS011;4748;50.802;7.132;2022-08-18T15:16:50;11.60;;;8.50;;
9418;SDS011;4748;50.802;7.132;2022-08-18T15:19:16;12.02;;;6.93;;
9418;SDS011;4748;50.802;7.132;2022-08-18T15:21:41;7.50;;;6.68;;
9418;SDS011;4748;50.802;7.132;2022-08-18T15:24:25;8.48;;;7.15;;
9418;SDS011;4748;50.802;7.132;2022-08-18T15:27:09;6.60;;;5.88;;
9418;SDS011;4748;50.802;7.132;2022-08-18T15:29:34;9.23;;;6.22;;
9418;SDS011;4748;50.802;7.132;2022-08-18T15:32:00;6.03;;;5.53;;
9418;SDS011;4748;50.802;7.132;2022-08-18T15:34:29;6.55;;;5.93;;
9418;SDS011;4748;50.802;7.132;2022-08-18T15:36:54;6.22;;;5.05;;
9418;SDS011;4748;50.802;7.132;2022-08-18T15:39:21;5.70;;;4.72;;
9418;SDS011;4748;50.802;7.132;2022-08-18T15:41:47;4.88;;;4.43;;
9418;SDS011;4748;50.802;7.132;2022-08-18T15:44:17;4.93;;;4.50;;
9418;SDS011;4748;50.802;7.132;2022-08-18T15:46:43;5.22;;;4.82;;
9418;SDS011;4748;50.802;7.132;2022-08-18T15:49:09;5.28;;;4.85;;
9418;SDS011;4748;50.802;7.132;2022-08-18T15:51:36;8.95;;;5.57;;
9418;SDS011;4748;50.802;7.132;2022-08-18T15:54:03;7.80;;;5.30;;
9418;SDS011;4748;50.802;7.132;2022-08-18T15:56:30;7.00;;;5.07;;
9418;SDS011;4748;50.802;7.132;2022-08-18T15:58:56;5.43;;;4.75;;
9418;SDS011;4748;50.802;7.132;2022-08-18T16:01:23;8.15;;;5.57;;
9418;SDS011;4748;50.802;7.132;2022-08-18T16:03:50;6.13;;;5.53;;
9418;SDS011;4748;50.802;7.132;2022-08-18T16:06:20;5.47;;;4.97;;
9418;SDS011;4748;50.802;7.132;2022-08-18T16:08:48;5.53;;;4.75;;
9418;SDS011;4748;50.802;7.132;2022-08-18T16:11:14;5.30;;;4.90;;
9418;SDS011;4748;50.802;7.132;2022-08-18T16:13:40;5.38;;;4.82;;
9418;SDS011;4748;50.802;7.132;2022-08-18T16:18:35;5.28;;;4.88;;
9418;SDS011;4748;50.802;7.132;2022-08-18T16:21:02;5.35;;;4.95;;
9418;SDS011;4748;50.802;7.132;2022-08-18T16:23:35;4.20;;;3.90;;
9418;SDS011;4748;50.802;7.132;2022-08-18T16:26:04;4.30;;;3.97;;
9418;SDS011;4748;50.802;7.132;2022-08-18T16:28:31;6.32;;;4.63;;
9418;SDS011;4748;50.802;7.132;2022-08-18T16:30:57;5.15;;;4.72;;
9418;SDS011;4748;50.802;7.132;2022-08-18T16:33:23;12.68;;;5.13;;
9418;SDS011;4748;50.802;7.132;2022-08-18T16:35:49;5.07;;;4.55;;
9418;SDS011;4748;50.802;7.132;2022-08-18T16:38:16;5.68;;;5.03;;
9418;SDS011;4748;50.802;7.132;2022-08-18T16:40:43;8.23;;;5.47;;
9418;SDS011;4748;50.802;7.132;2022-08-18T16:43:08;5.75;;;5.22;;
9418;SDS011;4748;50.802;7.132;2022-08-18T16:45:35;6.65;;;6.13;;
9418;SDS011;4748;50.802;7.132;2022-08-18T16:48:01;8.93;;;5.32;;
9418;SDS011;4748;50.802;7.132;2022-08-18T16:50:27;6.80;;;6.20;;
9418;SDS011;4748;50.802;7.132;2022-08-18T16:52:53;10.10;;;6.03;;
9418;SDS011;4748;50.802;7.132;2022-08-18T16:55:19;6.40;;;5.80;;
9418;SDS011;4748;50.802;7.132;2022-08-18T16:57:45;6.60;;;6.00;;
9418;SDS011;4748;50.802;7.132;2022-08-18T17:00:30;7.80;;;6.05;;
9418;SDS011;4748;50.802;7.132;2022-08-18T17:03:16;5.88;;;5.38;;
9418;SDS011;4748;50.802;7.132;2022-08-18T17:06:01;6.00;;;5.50;;
9418;SDS011;4748;50.802;7.132;2022-08-18T17:08:28;14.60;;;6.10;;
9418;SDS011;4748;50.802;7.132;2022-08-18T17:10:58;6.35;;;5.85;;
9418;SDS011;4748;50.802;7.132;2022-08-18T17:13:27;6.15;;;5.72;;
9418;SDS011;4748;50.802;7.132;2022-08-18T17:15:53;6.38;;;5.78;;
9418;SDS011;4748;50.802;7.132;2022-08-18T17:18:19;5.70;;;5.20;;
9418;SDS011;4748;50.802;7.132;2022-08-18T17:20:44;6.45;;;5.85;;
9418;SDS011;4748;50.802;7.132;2022-08-18T17:23:10;8.55;;;6.50;;
9418;SDS011;4748;50.802;7.132;2022-08-18T17:25:36;6.28;;;5.32;;
9418;SDS011;4748;50.802;7.132;2022-08-18T17:28:02;12.35;;;6.82;;
9418;SDS011;4748;50.802;7.132;2022-08-18T17:30:29;6.72;;;5.90;;
9418;SDS011;4748;50.802;7.132;2022-08-18T17:32:58;6.82;;;5.72;;
9418;SDS011;4748;50.802;7.132;2022-08-18T17:35:32;6.40;;;5.50;;
9418;SDS011;4748;50.802;7.132;2022-08-18T17:38:06;6.05;;;5.63;;
9418;SDS011;4748;50.802;7.132;2022-08-18T17:40:38;6.20;;;5.35;;
9418;SDS011;4748;50.802;7.132;2022-08-18T17:43:17;5.95;;;5.20;;
9418;SDS011;4748;50.802;7.132;2022-08-18T17:45:54;6.70;;;6.10;;
9418;SDS011;4748;50.802;7.132;2022-08-18T17:48:25;8.23;;;5.38;;
9418;SDS011;4748;50.802;7.132;2022-08-18T17:51:09;7.85;;;5.90;;
9418;SDS011;4748;50.802;7.132;2022-08-18T17:53:59;9.45;;;5.88;;
9418;SDS011;4748;50.802;7.132;2022-08-18T17:56:50;6.07;;;5.47;;
9418;SDS011;4748;50.802;7.132;2022-08-18T18:02:08;10.70;;;6.22;;
9418;SDS011;4748;50.802;7.132;2022-08-18T18:04:40;6.65;;;5.88;;
9418;SDS011;4748;50.802;7.132;2022-08-18T18:07:27;5.90;;;5.28;;
9418;SDS011;4748;50.802;7.132;2022-08-18T18:12:31;10.32;;;5.75;;
9418;SDS011;4748;50.802;7.132;2022-08-18T18:14:59;6.30;;;5.25;;
9418;SDS011;4748;50.802;7.132;2022-08-18T18:17:30;5.90;;;5.50;;
9418;SDS011;4748;50.802;7.132;2022-08-18T18:22:55;6.05;;;5.20;;
9418;SDS011;4748;50.802;7.132;2022-08-18T18:25:46;6.20;;;5.60;;
9418;SDS011;4748;50.802;7.132;2022-08-18T18:28:31;9.55;;;6.30;;
9418;SDS011;4748;50.802;7.132;2022-08-18T18:30:59;7.15;;;6.35;;
9418;SDS011;4748;50.802;7.132;2022-08-18T18:33:41;5.78;;;5.25;;
9418;SDS011;4748;50.802;7.132;2022-08-18T18:36:07;6.72;;;6.13;;
9418;SDS011;4748;50.802;7.132;2022-08-18T18:38:36;6.90;;;6.18;;
9418;SDS011;4748;50.802;7.132;2022-08-18T18:43:36;7.15;;;5.72;;
9418;SDS011;4748;50.802;7.132;2022-08-18T18:51:59;15.73;;;7.10;;
9418;SDS011;4748;50.802;7.132;2022-08-18T18:54:59;8.65;;;5.85;;
9418;SDS011;4748;50.802;7.132;2022-08-18T19:00:15;9.80;;;5.95;;
9418;SDS011;4748;50.802;7.132;2022-08-18T19:02:52;7.25;;;5.95;;
9418;SDS011;4748;50.802;7.132;2022-08-18T19:13:39;6.35;;;4.88;;
9418;SDS011;4748;50.802;7.132;2022-08-18T19:16:09;5.10;;;4.65;;
9418;SDS011;4748;50.802;7.132;2022-08-18T19:18:41;4.55;;;4.25;;
9418;SDS011;4748;50.802;7.132;2022-08-18T19:21:13;5.30;;;4.88;;
9418;SDS011;4748;50.802;7.132;2022-08-18T19:26:17;4.85;;;4.45;;
9418;SDS011;4748;50.802;7.132;2022-08-18T19:28:52;12.65;;;4.32;;
9418;SDS011;4748;50.802;7.132;2022-08-18T19:31:23;4.82;;;4.32;;
9418;SDS011;4748;50.802;7.132;2022-08-18T19:33:57;5.57;;;4.93;;
9418;SDS011;4748;50.802;7.132;2022-08-18T19:36:32;4.38;;;3.97;;
9418;SDS011;4748;50.802;7.132;2022-08-18T19:41:48;5.82;;;4.05;;
9418;SDS011;4748;50.802;7.132;2022-08-18T19:47:14;4.32;;;4.05;;
9418;SDS011;4748;50.802;7.132;2022-08-18T19:57:36;5.75;;;4.10;;
9418;SDS011;4748;50.802;7.132;2022-08-18T20:06:08;3.72;;;3.53;;
9418;SDS011;4748;50.802;7.132;2022-08-18T20:14:12;3.38;;;3.17;;
9418;SDS011;4748;50.802;7.132;2022-08-18T20:16:43;4.50;;;4.10;;
9418;SDS011;4748;50.802;7.132;2022-08-18T20:19:41;9.00;;;3.22;;
9418;SDS011;4748;50.802;7.132;2022-08-18T20:22:31;3.97;;;3.75;;
9418;SDS011;4748;50.802;7.132;2022-08-18T20:27:44;4.25;;;3.95;;
9418;SDS011;4748;50.802;7.132;2022-08-18T20:30:22;3.85;;;3.42;;
9418;SDS011;4748;50.802;7.132;2022-08-18T20:33:05;4.20;;;3.80;;
9418;SDS011;4748;50.802;7.132;2022-08-18T20:35:38;3.88;;;3.42;;
9418;SDS011;4748;50.802;7.132;2022-08-18T20:38:26;12.32;;;4.40;;
9418;SDS011;4748;50.802;7.132;2022-08-18T20:40:58;10.00;;;4.10;;
9418;SDS011;4748;50.802;7.132;2022-08-18T20:43:46;3.95;;;3.65;;
9418;SDS011;4748;50.802;7.132;2022-08-18T20:51:36;4.00;;;3.80;;
9418;SDS011;4748;50.802;7.132;2022-08-18T20:57:04;7.10;;;4.22;;
9418;SDS011;4748;50.802;7.132;2022-08-18T20:59:37;4.25;;;3.90;;
9418;SDS011;4748;50.802;7.132;2022-08-18T21:02:09;4.32;;;3.92;;
9418;SDS011;4748;50.802;7.132;2022-08-18T21:04:52;5.50;;;4.15;;
9418;SDS011;4748;50.802;7.132;2022-08-18T21:09:53;4.97;;;4.45;;
9418;SDS011;4748;50.802;7.132;2022-08-18T21:12:23;3.42;;;3.13;;
9418;SDS011;4748;50.802;7.132;2022-08-18T21:14:52;5.72;;;4.47;;
9418;SDS011;4748;50.802;7.132;2022-08-18T21:17:19;5.75;;;4.53;;
9418;SDS011;4748;50.802;7.132;2022-08-18T21:19:47;4.47;;;4.18;;
9418;SDS011;4748;50.802;7.132;2022-08-18T21:22:12;4.40;;;4.00;;
9418;SDS011;4748;50.802;7.132;2022-08-18T21:24:42;4.28;;;3.53;;
9418;SDS011;4748;50.802;7.132;2022-08-18T21:27:23;3.80;;;3.45;;
9418;SDS011;4748;50.802;7.132;2022-08-18T21:29:50;5.70;;;3.80;;
